Time;durP1;ratioP1;P1;durP2;ratioP2;P2;SDS_P1;SDS_P2;PMS_P1;PMS_P2;Temp;Humidity;BMP_temperature;BMP_pressure;BME280_temperature;BME280_humidity;BME280_pressure;Samples;Min_cycle;Max_cycle;Signal;HPM_P1;HPM_P2
2022/03/10 00:00:41;;;;;;;24.58;11.18;;;;;;;;;;4979094;28;20678;-65
2022/03/10 00:03:08;;;;;;;18.67;10.75;;;;;;;;;;4991800;28;20147;-67
2022/03/10 00:05:37;;;;;;;23.27;11.57;;;;;;;;;;4991146;28;20544;-66
2022/03/10 00:08:05;;;;;;;19.10;11.55;;;;;;;;;;4991202;28;20046;-66
2022/03/10 00:10:32;;;;;;;20.38;11.05;;;;;;;;;;4990671;28;20077;-67
2022/03/10 00:12:58;;;;;;;21.40;11.88;;;;;;;;;;4991265;28;20046;-68
2022/03/10 00:15:25;;;;;;;19.17;10.80;;;;;;;;;;4991273;28;20480;-65
2022/03/10 00:17:53;;;;;;;20.80;11.40;;;;;;;;;;4991235;28;20061;-67
2022/03/10 00:20:21;;;;;;;19.10;10.18;;;;;;;;;;4990945;28;20477;-66
2022/03/10 00:22:51;;;;;;;19.38;11.07;;;;;;;;;;4991344;28;20046;-66
2022/03/10 00:25:18;;;;;;;18.73;10.20;;;;;;;;;;4991424;28;20050;-66
2022/03/10 00:27:46;;;;;;;16.40;10.35;;;;;;;;;;4991540;28;20097;-66
2022/03/10 00:30:13;;;;;;;18.17;10.27;;;;;;;;;;4991747;28;20050;-66
2022/03/10 00:32:45;;;;;;;19.08;10.00;;;;;;;;;;4991533;28;20085;-66
2022/03/10 00:35:17;;;;;;;18.67;10.40;;;;;;;;;;4990923;28;20050;-66
2022/03/10 00:37:45;;;;;;;16.20;10.40;;;;;;;;;;4991111;28;20054;-68
2022/03/10 00:40:14;;;;;;;16.35;10.25;;;;;;;;;;4991302;28;20472;-65
2022/03/10 00:42:42;;;;;;;19.42;9.85;;;;;;;;;;4991597;28;20499;-66
2022/03/10 00:45:10;;;;;;;15.60;9.40;;;;;;;;;;4990921;28;20060;-68
2022/03/10 00:47:38;;;;;;;19.10;9.85;;;;;;;;;;4991063;28;20082;-66
2022/03/10 00:50:07;;;;;;;16.42;10.70;;;;;;;;;;4991081;28;20065;-66
2022/03/10 00:52:39;;;;;;;20.35;9.95;;;;;;;;;;4990434;28;20164;-68
2022/03/10 00:55:08;;;;;;;17.83;9.95;;;;;;;;;;4990583;28;20137;-67
2022/03/10 00:57:36;;;;;;;16.83;10.52;;;;;;;;;;4990665;28;20050;-65
2022/03/10 01:00:04;;;;;;;18.75;10.48;;;;;;;;;;4990713;28;20133;-67
2022/03/10 01:02:32;;;;;;;18.20;10.70;;;;;;;;;;4991425;28;20050;-66
2022/03/10 01:04:59;;;;;;;21.38;10.75;;;;;;;;;;4990643;28;20134;-66
2022/03/10 01:07:26;;;;;;;20.00;11.38;;;;;;;;;;4990491;28;20057;-66
2022/03/10 01:09:53;;;;;;;15.95;10.38;;;;;;;;;;4990766;28;20077;-66
2022/03/10 01:12:20;;;;;;;17.98;11.00;;;;;;;;;;4991051;28;20761;-66
2022/03/10 01:14:49;;;;;;;18.13;10.82;;;;;;;;;;4991194;28;20109;-66
2022/03/10 01:17:16;;;;;;;18.88;10.68;;;;;;;;;;4990888;28;20101;-66
2022/03/10 01:19:43;;;;;;;17.60;10.88;;;;;;;;;;4991069;28;20137;-66
2022/03/10 01:22:10;;;;;;;16.25;10.63;;;;;;;;;;4994035;28;20056;-65
2022/03/10 01:24:37;;;;;;;15.80;10.05;;;;;;;;;;4995358;28;20057;-66
2022/03/10 01:27:04;;;;;;;17.73;10.15;;;;;;;;;;4995151;28;20134;-66
2022/03/10 01:29:31;;;;;;;22.17;11.07;;;;;;;;;;4994161;28;20053;-67
2022/03/10 01:31:59;;;;;;;20.00;11.25;;;;;;;;;;4993930;28;20055;-65
2022/03/10 01:34:27;;;;;;;17.90;11.00;;;;;;;;;;4994110;28;20500;-67
2022/03/10 01:36:54;;;;;;;19.77;11.80;;;;;;;;;;4993871;28;20058;-65
2022/03/10 01:39:21;;;;;;;19.92;11.13;;;;;;;;;;4994139;28;20482;-66
2022/03/10 01:41:48;;;;;;;19.30;11.32;;;;;;;;;;4993706;28;20512;-66
2022/03/10 01:44:15;;;;;;;18.38;11.38;;;;;;;;;;4993793;28;20085;-66
2022/03/10 01:46:42;;;;;;;18.42;11.75;;;;;;;;;;4993673;28;20064;-67
2022/03/10 01:49:10;;;;;;;20.92;11.45;;;;;;;;;;4993932;28;20137;-66
2022/03/10 01:51:38;;;;;;;16.67;10.52;;;;;;;;;;4993965;28;20058;-66
2022/03/10 01:54:05;;;;;;;21.58;11.65;;;;;;;;;;4994846;28;20195;-66
2022/03/10 01:56:32;;;;;;;16.33;10.35;;;;;;;;;;4994473;28;20609;-66
2022/03/10 01:59:01;;;;;;;15.63;10.05;;;;;;;;;;4993687;28;20050;-66
2022/03/10 02:01:28;;;;;;;18.73;10.60;;;;;;;;;;4994266;28;20129;-67
2022/03/10 02:03:56;;;;;;;16.80;11.07;;;;;;;;;;4993911;28;20062;-66
2022/03/10 02:06:25;;;;;;;20.50;11.18;;;;;;;;;;4993973;28;20565;-65
2022/03/10 02:11:38;;;;;;;20.23;10.77;;;;;;;;;;4993719;28;20058;-66
2022/03/10 02:19:42;;;;;;;16.83;10.38;;;;;;;;;;4951814;28;20052;-65
2022/03/10 02:22:12;;;;;;;17.88;10.65;;;;;;;;;;4983493;28;20054;-66
2022/03/10 02:24:40;;;;;;;20.23;11.70;;;;;;;;;;4993800;28;20081;-66
2022/03/10 02:27:14;;;;;;;19.73;11.15;;;;;;;;;;4992783;28;20128;-66
2022/03/10 02:29:43;;;;;;;19.65;10.30;;;;;;;;;;4993426;28;20496;-66
2022/03/10 02:32:10;;;;;;;19.17;10.88;;;;;;;;;;4992889;28;20046;-66
2022/03/10 02:34:37;;;;;;;18.92;11.35;;;;;;;;;;4992562;28;20123;-64
2022/03/10 02:37:04;;;;;;;20.13;12.32;;;;;;;;;;4993054;28;20058;-63
2022/03/10 02:39:33;;;;;;;19.73;11.95;;;;;;;;;;4992865;28;20050;-63
2022/03/10 02:42:01;;;;;;;24.15;13.38;;;;;;;;;;4992903;28;20057;-63
2022/03/10 02:44:28;;;;;;;21.70;13.25;;;;;;;;;;4993140;28;20470;-64
2022/03/10 02:46:55;;;;;;;19.42;12.15;;;;;;;;;;4992836;28;20061;-64
2022/03/10 02:49:23;;;;;;;19.85;11.80;;;;;;;;;;4992863;28;20058;-64
2022/03/10 02:51:50;;;;;;;17.65;10.38;;;;;;;;;;4993134;28;20047;-63
2022/03/10 02:54:17;;;;;;;18.20;10.55;;;;;;;;;;4993631;28;20120;-63
2022/03/10 02:56:46;;;;;;;20.45;10.98;;;;;;;;;;4994119;28;20141;-64
2022/03/10 02:59:13;;;;;;;17.98;10.80;;;;;;;;;;4994194;28;20078;-64
2022/03/10 03:01:40;;;;;;;21.30;11.57;;;;;;;;;;4994935;28;20050;-64
2022/03/10 03:04:07;;;;;;;18.85;10.13;;;;;;;;;;4994537;28;20447;-64
2022/03/10 03:06:34;;;;;;;16.73;9.75;;;;;;;;;;4994831;28;20484;-63
2022/03/10 03:09:01;;;;;;;19.25;9.95;;;;;;;;;;4994666;28;20407;-64
2022/03/10 03:11:28;;;;;;;17.85;9.52;;;;;;;;;;4994232;28;20162;-64
2022/03/10 03:13:57;;;;;;;15.30;9.60;;;;;;;;;;4994582;28;20476;-64
2022/03/10 03:16:25;;;;;;;14.98;8.95;;;;;;;;;;4994327;28;20042;-64
2022/03/10 03:18:52;;;;;;;18.70;9.88;;;;;;;;;;4994324;28;20050;-64
2022/03/10 03:21:19;;;;;;;20.00;10.32;;;;;;;;;;4994268;28;20484;-64
2022/03/10 03:23:47;;;;;;;17.40;10.02;;;;;;;;;;4993932;28;20081;-64
2022/03/10 03:26:14;;;;;;;15.02;9.23;;;;;;;;;;4994158;28;20046;-64
2022/03/10 03:28:41;;;;;;;17.77;9.32;;;;;;;;;;4994359;28;20418;-64
2022/03/10 03:31:10;;;;;;;17.02;9.15;;;;;;;;;;4993838;28;20051;-65
2022/03/10 03:33:37;;;;;;;18.15;10.00;;;;;;;;;;4993880;28;20043;-66
2022/03/10 03:36:05;;;;;;;16.73;9.80;;;;;;;;;;4993401;28;20052;-65
2022/03/10 03:38:33;;;;;;;16.90;9.63;;;;;;;;;;4993659;28;20284;-65
2022/03/10 03:41:00;;;;;;;20.50;10.90;;;;;;;;;;4993659;28;20088;-65
2022/03/10 03:43:27;;;;;;;15.18;9.48;;;;;;;;;;4993858;28;20085;-66
2022/03/10 03:45:56;;;;;;;18.90;11.00;;;;;;;;;;4992556;28;20056;-65
2022/03/10 03:48:25;;;;;;;19.25;10.57;;;;;;;;;;4994084;28;20410;-65
2022/03/10 03:50:52;;;;;;;19.10;11.73;;;;;;;;;;4993621;28;20416;-65
2022/03/10 03:53:19;;;;;;;19.48;11.13;;;;;;;;;;4993271;28;20594;-66
2022/03/10 03:55:46;;;;;;;18.35;11.23;;;;;;;;;;4993367;28;20484;-63
2022/03/10 03:58:13;;;;;;;19.77;11.30;;;;;;;;;;4993478;28;20423;-66
2022/03/10 04:00:40;;;;;;;19.33;10.82;;;;;;;;;;4993515;28;20419;-66
2022/03/10 04:03:09;;;;;;;19.58;11.57;;;;;;;;;;4993295;28;20072;-67
2022/03/10 04:05:38;;;;;;;19.42;11.57;;;;;;;;;;4992777;28;20053;-65
2022/03/10 04:08:06;;;;;;;16.60;11.35;;;;;;;;;;4992861;28;20475;-65
2022/03/10 04:10:33;;;;;;;19.75;11.13;;;;;;;;;;4993070;28;20463;-64
2022/03/10 04:13:00;;;;;;;19.08;10.68;;;;;;;;;;4993022;28;20060;-66
2022/03/10 04:15:27;;;;;;;17.13;9.73;;;;;;;;;;4993133;28;20141;-67
2022/03/10 04:17:54;;;;;;;18.75;9.25;;;;;;;;;;4992776;28;20567;-65
2022/03/10 04:20:22;;;;;;;16.08;9.48;;;;;;;;;;4992763;28;20161;-66
2022/03/10 04:22:50;;;;;;;13.55;9.13;;;;;;;;;;4992506;28;20124;-65
2022/03/10 04:25:17;;;;;;;16.70;10.18;;;;;;;;;;4993152;28;20068;-66
2022/03/10 04:27:44;;;;;;;14.77;8.48;;;;;;;;;;4992622;28;20129;-65
2022/03/10 04:30:12;;;;;;;17.50;8.80;;;;;;;;;;4993209;28;20058;-63
2022/03/10 04:32:41;;;;;;;14.73;8.20;;;;;;;;;;4992666;28;20129;-66
2022/03/10 04:35:09;;;;;;;15.43;8.07;;;;;;;;;;4992387;28;20109;-65
2022/03/10 04:37:36;;;;;;;15.75;8.38;;;;;;;;;;4992284;28;20077;-66
2022/03/10 04:40:06;;;;;;;16.55;8.25;;;;;;;;;;4992718;28;20526;-65
2022/03/10 04:42:33;;;;;;;14.27;7.88;;;;;;;;;;4992782;28;20518;-65
2022/03/10 04:45:00;;;;;;;14.48;7.78;;;;;;;;;;4992684;28;20053;-65
2022/03/10 04:47:27;;;;;;;13.50;7.70;;;;;;;;;;4992544;28;20057;-65
2022/03/10 04:49:55;;;;;;;14.50;7.63;;;;;;;;;;4993255;28;20051;-65
2022/03/10 04:52:22;;;;;;;12.68;7.05;;;;;;;;;;4992487;28;20050;-66
2022/03/10 04:54:49;;;;;;;14.32;8.07;;;;;;;;;;4992656;28;20050;-65
2022/03/10 04:57:18;;;;;;;16.85;8.20;;;;;;;;;;4992032;28;20047;-66
2022/03/10 04:59:45;;;;;;;12.13;7.25;;;;;;;;;;4992380;28;20130;-66
2022/03/10 05:02:12;;;;;;;14.20;7.57;;;;;;;;;;4992899;28;20061;-66
2022/03/10 05:04:39;;;;;;;14.55;7.60;;;;;;;;;;4992202;28;20050;-65
2022/03/10 05:07:06;;;;;;;11.82;7.18;;;;;;;;;;4992344;28;20061;-64
2022/03/10 05:09:33;;;;;;;14.43;7.57;;;;;;;;;;4992120;28;20047;-64
2022/03/10 05:12:00;;;;;;;12.90;7.20;;;;;;;;;;4992667;28;20556;-64
2022/03/10 05:14:29;;;;;;;14.00;7.65;;;;;;;;;;4992327;28;20050;-66
2022/03/10 05:16:56;;;;;;;14.63;7.53;;;;;;;;;;4991987;28;20054;-66
2022/03/10 05:19:23;;;;;;;14.55;7.75;;;;;;;;;;4992405;28;20519;-65
2022/03/10 05:21:50;;;;;;;14.75;8.25;;;;;;;;;;4992518;28;20047;-66
2022/03/10 05:24:18;;;;;;;15.23;7.72;;;;;;;;;;4992359;28;20150;-65
2022/03/10 05:26:44;;;;;;;14.38;8.10;;;;;;;;;;4992260;28;20233;-64
2022/03/10 05:29:12;;;;;;;14.25;7.25;;;;;;;;;;4992199;28;20049;-65
2022/03/10 05:31:41;;;;;;;12.68;7.55;;;;;;;;;;4992759;28;20050;-64
2022/03/10 05:34:08;;;;;;;14.40;7.88;;;;;;;;;;4992498;28;20412;-65
2022/03/10 05:36:36;;;;;;;13.02;7.28;;;;;;;;;;4992207;28;20435;-65
2022/03/10 05:39:03;;;;;;;13.48;7.30;;;;;;;;;;4992443;28;20085;-65
2022/03/10 05:41:32;;;;;;;14.80;8.02;;;;;;;;;;4992434;28;20492;-65
2022/03/10 05:43:59;;;;;;;13.93;7.25;;;;;;;;;;4992069;28;20073;-64
2022/03/10 05:46:26;;;;;;;17.45;7.63;;;;;;;;;;4991832;28;20511;-66
2022/03/10 05:48:54;;;;;;;17.15;7.35;;;;;;;;;;4992017;28;20050;-65
2022/03/10 05:51:21;;;;;;;18.42;7.88;;;;;;;;;;4992696;28;20348;-65
2022/03/10 05:53:49;;;;;;;16.50;7.68;;;;;;;;;;4991911;28;20407;-65
2022/03/10 05:56:16;;;;;;;14.65;7.18;;;;;;;;;;4991787;28;20054;-65
2022/03/10 05:58:43;;;;;;;12.80;6.50;;;;;;;;;;4991570;28;20097;-65
2022/03/10 06:01:11;;;;;;;14.25;6.35;;;;;;;;;;4992100;28;20047;-65
2022/03/10 06:03:38;;;;;;;11.15;5.78;;;;;;;;;;4991514;28;20047;-64
2022/03/10 06:06:06;;;;;;;12.85;6.53;;;;;;;;;;4991453;28;20538;-65
2022/03/10 06:08:33;;;;;;;14.02;8.15;;;;;;;;;;4993118;28;20504;-65
2022/03/10 06:11:04;;;;;;;15.52;7.18;;;;;;;;;;4995078;28;20051;-64
2022/03/10 06:13:32;;;;;;;10.68;6.03;;;;;;;;;;4995398;28;20097;-65
2022/03/10 06:16:00;;;;;;;14.88;7.00;;;;;;;;;;4995872;28;20460;-65
2022/03/10 06:18:27;;;;;;;14.18;6.72;;;;;;;;;;4995140;28;20102;-66
2022/03/10 06:20:53;;;;;;;13.57;7.00;;;;;;;;;;4994872;28;20415;-65
2022/03/10 06:23:22;;;;;;;13.20;6.88;;;;;;;;;;4995095;28;20056;-64
2022/03/10 06:25:49;;;;;;;14.20;6.93;;;;;;;;;;4994306;28;20488;-64
2022/03/10 06:28:16;;;;;;;14.85;7.50;;;;;;;;;;4994931;28;20059;-65
2022/03/10 06:30:43;;;;;;;13.75;7.07;;;;;;;;;;4994764;28;20413;-65
2022/03/10 06:33:10;;;;;;;12.13;7.35;;;;;;;;;;4994977;28;20042;-64
2022/03/10 06:35:37;;;;;;;12.10;7.78;;;;;;;;;;4994075;28;20054;-66
2022/03/10 06:38:04;;;;;;;12.40;7.13;;;;;;;;;;4994639;28;20365;-66
2022/03/10 06:40:33;;;;;;;14.38;8.00;;;;;;;;;;4994678;28;20046;-65
2022/03/10 06:43:00;;;;;;;13.65;7.18;;;;;;;;;;4995385;28;20050;-65
2022/03/10 06:45:27;;;;;;;11.50;6.47;;;;;;;;;;4994329;28;20058;-66
2022/03/10 06:47:54;;;;;;;12.73;7.70;;;;;;;;;;4994403;28;20149;-65
2022/03/10 06:50:21;;;;;;;13.38;6.68;;;;;;;;;;4994535;28;20419;-66
2022/03/10 06:52:48;;;;;;;13.55;7.50;;;;;;;;;;4994307;28;20508;-65
2022/03/10 06:55:15;;;;;;;12.60;7.05;;;;;;;;;;4994161;28;20047;-65
2022/03/10 06:57:43;;;;;;;15.13;7.93;;;;;;;;;;4994060;28;20056;-65
2022/03/10 07:00:11;;;;;;;14.73;7.38;;;;;;;;;;4994307;28;20058;-66
2022/03/10 07:02:39;;;;;;;11.77;6.47;;;;;;;;;;4994185;28;20053;-65
2022/03/10 07:05:07;;;;;;;14.07;7.13;;;;;;;;;;4994524;28;20077;-64
2022/03/10 07:07:34;;;;;;;14.05;7.22;;;;;;;;;;4994331;28;20533;-65
2022/03/10 07:10:01;;;;;;;15.13;7.68;;;;;;;;;;4995088;28;20090;-65
2022/03/10 07:12:28;;;;;;;12.10;6.88;;;;;;;;;;4994277;28;20046;-65
2022/03/10 07:14:57;;;;;;;11.52;6.93;;;;;;;;;;4993972;28;20101;-65
2022/03/10 07:17:24;;;;;;;11.88;6.53;;;;;;;;;;4994382;28;20054;-65
2022/03/10 07:19:51;;;;;;;12.27;7.07;;;;;;;;;;4993864;28;20054;-65
2022/03/10 07:22:19;;;;;;;15.07;7.68;;;;;;;;;;4994951;28;20050;-64
2022/03/10 07:24:46;;;;;;;16.88;7.35;;;;;;;;;;4994331;28;20055;-65
2022/03/10 07:27:13;;;;;;;16.60;7.93;;;;;;;;;;4994050;28;20511;-64
2022/03/10 07:29:41;;;;;;;13.68;7.40;;;;;;;;;;4994131;28;20496;-65
2022/03/10 07:32:09;;;;;;;13.75;6.40;;;;;;;;;;4994046;28;20053;-65
2022/03/10 07:34:37;;;;;;;12.25;6.70;;;;;;;;;;4993449;28;20053;-64
2022/03/10 07:37:04;;;;;;;15.05;7.00;;;;;;;;;;4993519;28;20243;-64
2022/03/10 07:39:31;;;;;;;15.82;7.78;;;;;;;;;;4993316;28;20436;-66
2022/03/10 07:41:58;;;;;;;12.60;7.38;;;;;;;;;;4993398;28;20133;-65
2022/03/10 07:44:26;;;;;;;11.73;7.18;;;;;;;;;;4993261;28;20122;-66
2022/03/10 07:46:53;;;;;;;13.98;6.97;;;;;;;;;;4993043;28;20105;-65
2022/03/10 07:49:21;;;;;;;13.25;6.93;;;;;;;;;;4993137;28;20042;-65
2022/03/10 07:51:48;;;;;;;11.30;7.22;;;;;;;;;;4993300;28;20050;-65
2022/03/10 07:54:15;;;;;;;14.23;6.93;;;;;;;;;;4993038;28;20054;-65
2022/03/10 07:56:42;;;;;;;11.52;6.75;;;;;;;;;;4993156;28;20056;-65
2022/03/10 07:59:09;;;;;;;13.75;7.85;;;;;;;;;;4993107;28;20057;-65
2022/03/10 08:01:36;;;;;;;13.32;7.35;;;;;;;;;;4992859;28;20046;-64
2022/03/10 08:04:04;;;;;;;13.63;7.40;;;;;;;;;;4993121;28;20431;-65
2022/03/10 08:06:34;;;;;;;13.32;7.50;;;;;;;;;;4992863;28;20389;-66
2022/03/10 08:09:02;;;;;;;14.35;7.30;;;;;;;;;;4993200;28;20058;-64
2022/03/10 08:11:29;;;;;;;16.77;8.30;;;;;;;;;;4993441;28;20058;-65
2022/03/10 08:13:56;;;;;;;17.48;8.05;;;;;;;;;;4988761;28;20056;-65
2022/03/10 08:16:23;;;;;;;14.30;8.20;;;;;;;;;;4991505;28;20054;-65
2022/03/10 08:18:50;;;;;;;16.85;8.77;;;;;;;;;;4990979;28;20070;-66
2022/03/10 08:21:18;;;;;;;15.13;8.07;;;;;;;;;;4991184;28;20077;-65
2022/03/10 08:23:46;;;;;;;21.20;10.35;;;;;;;;;;4990869;28;20247;-65
2022/03/10 08:26:14;;;;;;;18.02;9.25;;;;;;;;;;4991195;28;20050;-67
2022/03/10 08:28:41;;;;;;;14.65;8.70;;;;;;;;;;4991165;28;20062;-64
2022/03/10 08:31:08;;;;;;;13.82;6.95;;;;;;;;;;4990381;28;20426;-65
2022/03/10 08:33:35;;;;;;;11.40;5.78;;;;;;;;;;4990846;28;20053;-66
2022/03/10 08:36:03;;;;;;;14.20;7.30;;;;;;;;;;4990314;28;20061;-65
2022/03/10 08:38:30;;;;;;;11.32;6.75;;;;;;;;;;4990635;28;20054;-64
2022/03/10 08:40:59;;;;;;;11.88;6.53;;;;;;;;;;4990393;28;20461;-64
2022/03/10 08:43:29;;;;;;;11.73;6.57;;;;;;;;;;4990554;28;20544;-64
2022/03/10 08:45:56;;;;;;;11.70;6.90;;;;;;;;;;4990344;28;20054;-64
2022/03/10 08:48:23;;;;;;;11.55;6.47;;;;;;;;;;4991036;28;20484;-64
2022/03/10 08:50:50;;;;;;;12.02;7.03;;;;;;;;;;4990635;28;20130;-64
2022/03/10 08:53:17;;;;;;;11.48;6.45;;;;;;;;;;4990456;28;20054;-63
2022/03/10 08:55:44;;;;;;;14.50;7.57;;;;;;;;;;4990958;28;20051;-65
2022/03/10 08:58:13;;;;;;;11.27;7.00;;;;;;;;;;4990327;28;20046;-65
2022/03/10 09:00:40;;;;;;;16.60;7.57;;;;;;;;;;4990270;28;20607;-65
2022/03/10 09:03:07;;;;;;;11.75;6.60;;;;;;;;;;4990423;28;20050;-65
2022/03/10 09:05:36;;;;;;;15.00;7.15;;;;;;;;;;4990021;28;20050;-64
2022/03/10 09:08:04;;;;;;;13.45;7.20;;;;;;;;;;4990687;28;20050;-64
2022/03/10 09:10:31;;;;;;;13.38;7.30;;;;;;;;;;4990213;28;20050;-65
2022/03/10 09:12:59;;;;;;;12.30;7.18;;;;;;;;;;4990445;28;20514;-64
2022/03/10 09:15:28;;;;;;;12.57;7.32;;;;;;;;;;4989756;28;20050;-64
2022/03/10 09:17:55;;;;;;;13.27;7.28;;;;;;;;;;4990272;28;20351;-64
2022/03/10 09:20:22;;;;;;;13.10;6.63;;;;;;;;;;4990220;28;20047;-64
2022/03/10 09:22:50;;;;;;;10.82;6.90;;;;;;;;;;4990465;28;20520;-64
2022/03/10 09:25:17;;;;;;;14.02;6.25;;;;;;;;;;4990261;28;20051;-64
2022/03/10 09:27:44;;;;;;;14.93;6.88;;;;;;;;;;4989883;28;20053;-64
2022/03/10 09:30:13;;;;;;;12.75;6.47;;;;;;;;;;4990411;28;20050;-65
2022/03/10 09:32:43;;;;;;;12.27;6.43;;;;;;;;;;4990671;28;20507;-65
2022/03/10 09:35:13;;;;;;;12.20;6.90;;;;;;;;;;4990428;28;20049;-65
2022/03/10 09:37:40;;;;;;;16.20;6.93;;;;;;;;;;4990299;28;20121;-65
2022/03/10 09:40:09;;;;;;;11.85;6.03;;;;;;;;;;4990697;28;20177;-65
2022/03/10 09:42:36;;;;;;;14.50;7.43;;;;;;;;;;4992216;28;20050;-65
2022/03/10 09:45:07;;;;;;;11.40;7.03;;;;;;;;;;4993861;28;20054;-64
2022/03/10 09:47:36;;;;;;;16.60;8.10;;;;;;;;;;4994085;28;20060;-64
2022/03/10 09:50:07;;;;;;;14.80;7.25;;;;;;;;;;4993773;28;20050;-64
2022/03/10 09:52:34;;;;;;;13.70;7.43;;;;;;;;;;4994080;28;20051;-63
2022/03/10 09:55:01;;;;;;;17.33;7.05;;;;;;;;;;4993632;28;20050;-64
2022/03/10 09:57:29;;;;;;;11.30;6.47;;;;;;;;;;4993483;28;20056;-64
2022/03/10 09:59:59;;;;;;;11.73;6.78;;;;;;;;;;4993802;28;20052;-64
2022/03/10 10:02:27;;;;;;;12.45;6.57;;;;;;;;;;4993552;28;20562;-65
2022/03/10 10:04:56;;;;;;;14.57;6.65;;;;;;;;;;4993589;28;20058;-65
2022/03/10 10:07:27;;;;;;;11.95;6.95;;;;;;;;;;4993473;28;20496;-65
2022/03/10 10:09:56;;;;;;;13.05;7.30;;;;;;;;;;4993448;28;20482;-65
2022/03/10 10:12:26;;;;;;;13.43;7.78;;;;;;;;;;4993247;28;20434;-65
2022/03/10 10:14:53;;;;;;;15.77;7.90;;;;;;;;;;4992958;28;20419;-63
2022/03/10 10:17:27;;;;;;;14.68;7.63;;;;;;;;;;4993253;28;20053;-64
2022/03/10 10:19:57;;;;;;;13.57;6.72;;;;;;;;;;4994079;28;20112;-63
2022/03/10 10:22:27;;;;;;;14.98;7.57;;;;;;;;;;4993639;28;20367;-66
2022/03/10 10:24:57;;;;;;;12.85;6.90;;;;;;;;;;4992974;28;20050;-64
2022/03/10 10:27:26;;;;;;;14.00;8.10;;;;;;;;;;4993051;28;20133;-64
2022/03/10 10:29:54;;;;;;;13.07;7.82;;;;;;;;;;4993061;28;20364;-65
2022/03/10 10:32:26;;;;;;;11.50;6.85;;;;;;;;;;4993076;28;20053;-65
2022/03/10 10:35:04;;;;;;;15.07;7.63;;;;;;;;;;4993020;28;20047;-63
2022/03/10 10:37:33;;;;;;;18.67;7.85;;;;;;;;;;4993259;28;20435;-64
2022/03/10 10:40:02;;;;;;;14.10;7.93;;;;;;;;;;4992985;28;20072;-64
2022/03/10 10:42:31;;;;;;;10.75;6.68;;;;;;;;;;4993064;28;20146;-65
2022/03/10 10:45:00;;;;;;;14.13;7.10;;;;;;;;;;4992732;28;20500;-64
2022/03/10 10:47:27;;;;;;;12.27;6.47;;;;;;;;;;4992626;28;20078;-64
2022/03/10 10:50:09;;;;;;;12.73;6.35;;;;;;;;;;4995152;28;20077;-67
2022/03/10 10:52:41;;;;;;;12.50;6.07;;;;;;;;;;4993161;28;20137;-64
2022/03/10 10:55:10;;;;;;;10.55;5.43;;;;;;;;;;4991960;28;20042;-64
2022/03/10 10:57:39;;;;;;;12.57;5.70;;;;;;;;;;4992789;28;20507;-64
2022/03/10 11:00:10;;;;;;;8.82;5.50;;;;;;;;;;4992633;28;20130;-63
2022/03/10 11:02:40;;;;;;;10.38;5.53;;;;;;;;;;4992379;28;20050;-65
2022/03/10 11:05:11;;;;;;;9.48;5.18;;;;;;;;;;4991930;28;20061;-64
2022/03/10 11:07:38;;;;;;;;;;;;;;;;;;4992932;28;20081;-63
2022/03/10 11:10:08;;;;;;;9.80;4.70;;;;;;;;;;4992257;28;19922;-63
2022/03/10 11:12:39;;;;;;;12.27;5.13;;;;;;;;;;4992159;28;20137;-63
2022/03/10 11:15:07;;;;;;;10.85;5.20;;;;;;;;;;4987001;28;20066;-63
2022/03/10 11:17:35;;;;;;;9.45;5.18;;;;;;;;;;4991932;28;20563;-63
2022/03/10 11:20:07;;;;;;;10.02;5.07;;;;;;;;;;4991602;28;20077;-63
2022/03/10 11:22:47;;;;;;;11.98;6.15;;;;;;;;;;4991917;28;20043;-63
2022/03/10 11:25:31;;;;;;;11.90;6.68;;;;;;;;;;4990360;28;20054;-64
2022/03/10 11:28:01;;;;;;;11.90;6.55;;;;;;;;;;4988471;28;20378;-64
2022/03/10 11:30:29;;;;;;;11.93;6.40;;;;;;;;;;4991834;28;20436;-64
2022/03/10 11:33:04;;;;;;;10.75;5.93;;;;;;;;;;4991466;28;20145;-64
2022/03/10 11:35:33;;;;;;;10.35;5.45;;;;;;;;;;4989335;28;20423;-64
2022/03/10 11:38:00;;;;;;;11.27;6.10;;;;;;;;;;4991359;28;20068;-65
2022/03/10 11:40:49;;;;;;;11.45;6.45;;;;;;;;;;4991592;28;20057;-65
2022/03/10 11:43:31;;;;;;;12.40;6.57;;;;;;;;;;4991571;28;20048;-64
2022/03/10 11:46:27;;;;;;;12.98;7.05;;;;;;;;;;4991142;28;20050;-65
2022/03/10 11:49:06;;;;;;;23.30;10.90;;;;;;;;;;4957047;28;20130;-65
2022/03/10 11:51:52;;;;;;;23.23;10.77;;;;;;;;;;4991463;28;20524;-65
2022/03/10 11:54:24;;;;;;;19.55;9.75;;;;;;;;;;4991585;28;20144;-64
2022/03/10 11:57:04;;;;;;;13.93;7.38;;;;;;;;;;4991238;28;20062;-65
2022/03/10 11:59:47;;;;;;;11.57;6.18;;;;;;;;;;4991112;28;20129;-65
2022/03/10 12:02:43;;;;;;;11.07;6.38;;;;;;;;;;4989008;28;20043;-65
2022/03/10 12:05:12;;;;;;;13.30;7.20;;;;;;;;;;4990849;28;20046;-65
2022/03/10 12:07:51;;;;;;;12.52;7.22;;;;;;;;;;4991423;28;20108;-65
2022/03/10 12:10:18;;;;;;;10.68;6.72;;;;;;;;;;4991869;28;20054;-65
2022/03/10 12:12:47;;;;;;;12.85;6.88;;;;;;;;;;4991520;28;20058;-65
2022/03/10 12:15:47;;;;;;;11.40;6.25;;;;;;;;;;4990984;28;20050;-65
2022/03/10 12:18:35;;;;;;;14.03;6.70;;;;;;;;;;4991955;28;20054;-65
2022/03/10 12:21:17;;;;;;;11.52;6.97;;;;;;;;;;4991082;28;20057;-65
2022/03/10 12:23:52;;;;;;;10.60;5.65;;;;;;;;;;4991140;28;20050;-65
2022/03/10 12:26:26;;;;;;;9.75;6.10;;;;;;;;;;4990693;28;20046;-64
2022/03/10 12:28:57;;;;;;;14.50;6.70;;;;;;;;;;4990531;28;20043;-64
2022/03/10 12:31:27;;;;;;;12.65;6.95;;;;;;;;;;4990837;28;20085;-64
2022/03/10 12:33:56;;;;;;;12.27;7.00;;;;;;;;;;4990906;28;20050;-64
2022/03/10 12:36:32;;;;;;;13.73;7.65;;;;;;;;;;4990732;28;20053;-63
2022/03/10 12:38:59;;;;;;;14.55;8.07;;;;;;;;;;4991304;28;20555;-64
2022/03/10 12:41:36;;;;;;;15.18;8.13;;;;;;;;;;4991359;28;20050;-64
2022/03/10 12:44:06;;;;;;;14.75;7.10;;;;;;;;;;4990942;28;20054;-65
2022/03/10 12:46:35;;;;;;;12.97;6.90;;;;;;;;;;4991098;28;20054;-66
2022/03/10 12:49:05;;;;;;;12.38;6.95;;;;;;;;;;4990442;28;20054;-64
2022/03/10 12:51:34;;;;;;;13.43;6.88;;;;;;;;;;4991509;28;20046;-65
2022/03/10 12:54:03;;;;;;;12.55;7.15;;;;;;;;;;4990819;28;20050;-63
2022/03/10 12:56:42;;;;;;;12.88;7.45;;;;;;;;;;4990576;28;20085;-64
2022/03/10 12:59:10;;;;;;;12.93;6.90;;;;;;;;;;4990562;28;20046;-64
2022/03/10 13:01:38;;;;;;;10.80;6.35;;;;;;;;;;4991210;28;20046;-66
2022/03/10 13:04:13;;;;;;;13.57;6.63;;;;;;;;;;4990473;28;20050;-65
2022/03/10 13:06:41;;;;;;;14.88;7.13;;;;;;;;;;4990722;28;20492;-65
2022/03/10 13:09:08;;;;;;;13.70;6.80;;;;;;;;;;4991043;28;20514;-66
2022/03/10 13:11:37;;;;;;;13.35;7.07;;;;;;;;;;4990957;28;20117;-65
2022/03/10 13:14:17;;;;;;;12.82;7.60;;;;;;;;;;4990919;28;20178;-65
2022/03/10 13:16:46;;;;;;;12.55;7.28;;;;;;;;;;4990611;28;20488;-65
2022/03/10 13:19:21;;;;;;;12.32;6.00;;;;;;;;;;4994415;28;20049;-65
2022/03/10 13:21:50;;;;;;;11.77;6.80;;;;;;;;;;4994860;28;20522;-65
2022/03/10 13:24:40;;;;;;;9.50;6.20;;;;;;;;;;4994343;28;20156;-65
2022/03/10 13:27:09;;;;;;;12.20;6.43;;;;;;;;;;4995167;28;20061;-65
2022/03/10 13:29:38;;;;;;;12.70;6.60;;;;;;;;;;4994711;28;20058;-65
2022/03/10 13:32:06;;;;;;;12.73;6.20;;;;;;;;;;4995186;28;20163;-65
2022/03/10 13:34:33;;;;;;;13.30;5.78;;;;;;;;;;4994513;28;20446;-65
2022/03/10 13:37:00;;;;;;;13.02;6.80;;;;;;;;;;4994249;28;20046;-65
2022/03/10 13:39:28;;;;;;;10.95;5.55;;;;;;;;;;4994585;28;20385;-65
2022/03/10 13:41:55;;;;;;;9.73;5.38;;;;;;;;;;4994753;28;20054;-65
2022/03/10 13:44:22;;;;;;;15.75;6.78;;;;;;;;;;4994170;28;20046;-65
2022/03/10 13:46:51;;;;;;;12.23;6.45;;;;;;;;;;4994389;28;20046;-65
2022/03/10 13:49:22;;;;;;;10.68;6.05;;;;;;;;;;4994596;28;20046;-65
2022/03/10 13:51:50;;;;;;;11.93;6.82;;;;;;;;;;4994490;28;20442;-65
2022/03/10 13:54:18;;;;;;;10.50;6.00;;;;;;;;;;4993989;28;20051;-65
2022/03/10 13:56:48;;;;;;;12.85;6.13;;;;;;;;;;4993552;28;20500;-65
2022/03/10 13:59:16;;;;;;;13.68;6.32;;;;;;;;;;4994598;28;20512;-65
2022/03/10 14:01:44;;;;;;;13.95;6.28;;;;;;;;;;4994199;28;20049;-65
2022/03/10 14:04:14;;;;;;;13.35;6.20;;;;;;;;;;4993860;28;20052;-65
2022/03/10 14:06:45;;;;;;;14.30;7.43;;;;;;;;;;4994075;28;20496;-66
2022/03/10 14:09:20;;;;;;;12.43;7.85;;;;;;;;;;4992900;28;20046;-65
2022/03/10 14:11:47;;;;;;;14.43;8.82;;;;;;;;;;4994336;28;20667;-65
2022/03/10 14:14:15;;;;;;;12.85;7.68;;;;;;;;;;4993732;28;20508;-66
2022/03/10 14:16:53;;;;;;;14.20;7.72;;;;;;;;;;4993307;28;20112;-64
2022/03/10 14:19:29;;;;;;;12.88;6.95;;;;;;;;;;4993573;28;20054;-64
2022/03/10 14:21:59;;;;;;;9.88;6.03;;;;;;;;;;4993402;28;20043;-65
2022/03/10 14:24:28;;;;;;;10.27;6.53;;;;;;;;;;4993644;28;20535;-66
2022/03/10 14:26:55;;;;;;;22.90;7.63;;;;;;;;;;4992739;28;20050;-64
2022/03/10 14:29:22;;;;;;;12.07;6.82;;;;;;;;;;4992043;28;20488;-65
2022/03/10 14:31:49;;;;;;;15.15;7.93;;;;;;;;;;4993335;28;20050;-65
2022/03/10 14:34:16;;;;;;;12.40;7.22;;;;;;;;;;4993140;28;20042;-65
2022/03/10 14:36:48;;;;;;;15.65;8.73;;;;;;;;;;4979873;28;20113;-65
2022/03/10 14:39:15;;;;;;;10.95;6.25;;;;;;;;;;4997989;23;20047;-61
2022/03/10 14:41:42;;;;;;;12.48;6.35;;;;;;;;;;4978634;28;20497;-60
2022/03/10 14:44:11;;;;;;;13.13;6.25;;;;;;;;;;4992717;28;20490;-59
2022/03/10 14:46:38;;;;;;;12.07;6.13;;;;;;;;;;4992257;28;20046;-58